Wetterdaten: Woche 17.05.10 - 23.05.10 (KW20)
Datum Zeit Temperatur Luftfeuchte Luftdruck Niederschlag Wind Richtung Sonnenschein Solar Taupunkt Windchill Windben
17.05.2010 00:00 7.2 C 90 % 1021.0 hPa 0.0 l/m 3.3 km/h (1 Bft) O-SO 0.00 h 0 W/m 5.7 C 7.1 C 4.6 km/h (1 Bft)
17.05.2010 01:00 7.0 C 90 % 1020.9 hPa 0.0 l/m 3.6 km/h (1 Bft) O-SO 0.00 h 0 W/m 5.5 C 6.8 C 5.2 km/h (1 Bft)
17.05.2010 02:00 6.9 C 90 % 1021.2 hPa 0.0 l/m 2.6 km/h (1 Bft) O-NO 0.00 h 0 W/m 5.4 C 6.8 C 4.0 km/h (1 Bft)
17.05.2010 03:00 6.0 C 93 % 1021.4 hPa 0.0 l/m 0.0 km/h (0 Bft) N 0.00 h 0 W/m 4.9 C 6.0 C 0.2 km/h (0 Bft)
17.05.2010 04:00 5.6 C 95 % 1021.5 hPa 0.0 l/m 0.0 km/h (0 Bft) N 0.00 h 0 W/m 4.8 C 5.6 C 0.0 km/h (0 Bft)
17.05.2010 05:00 5.4 C 95 % 1021.7 hPa 0.0 l/m 0.0 km/h (0 Bft) N 0.00 h 6 W/m 4.7 C 5.4 C 0.1 km/h (0 Bft)
17.05.2010 06:00 5.6 C 95 % 1022.1 hPa 0.0 l/m 0.0 km/h (0 Bft) N 0.00 h 29 W/m 4.8 C 5.6 C 0.0 km/h (0 Bft)
17.05.2010 07:00 6.4 C 94 % 1022.6 hPa 0.0 l/m 0.0 km/h (0 Bft) N 0.02 h 110 W/m 5.5 C 6.4 C 0.2 km/h (0 Bft)
17.05.2010 08:00 8.2 C 90 % 1022.6 hPa 0.0 l/m 0.1 km/h (0 Bft) O-SO 0.30 h 234 W/m 6.7 C 8.2 C 0.7 km/h (0 Bft)
17.05.2010 09:00 10.9 C 82 % 1022.4 hPa 0.0 l/m 2.1 km/h (1 Bft) S-SO 0.78 h 345 W/m 7.9 C 10.9 C 4.3 km/h (1 Bft)
17.05.2010 10:00 13.2 C 74 % 1022.3 hPa 0.0 l/m 2.7 km/h (1 Bft) S-SO 0.97 h 468 W/m 8.6 C 13.2 C 5.2 km/h (1 Bft)
17.05.2010 11:00 15.0 C 65 % 1022.0 hPa 0.0 l/m 4.2 km/h (1 Bft) W 0.73 h 588 W/m 8.4 C 15.0 C 7.8 km/h (2 Bft)
17.05.2010 12:00 15.1 C 59 % 1021.8 hPa 0.0 l/m 6.5 km/h (2 Bft) W 0.37 h 440 W/m 7.1 C 15.1 C 10.5 km/h (2 Bft)
17.05.2010 13:00 16.9 C 50 % 1021.5 hPa 0.0 l/m 6.3 km/h (2 Bft) W 0.93 h 665 W/m 6.4 C 16.9 C 11.0 km/h (2 Bft)
17.05.2010 14:00 16.9 C 47 % 1021.6 hPa 0.0 l/m 8.9 km/h (2 Bft) W-NW 0.37 h 532 W/m 5.5 C 16.9 C 14.3 km/h (3 Bft)
17.05.2010 15:00 14.5 C 55 % 1022.1 hPa 0.0 l/m 8.4 km/h (2 Bft) W 0.00 h 126 W/m 5.5 C 14.5 C 12.8 km/h (3 Bft)
17.05.2010 16:00 14.6 C 58 % 1022.4 hPa 0.0 l/m 2.8 km/h (1 Bft) W-NW 0.00 h 186 W/m 6.3 C 14.6 C 5.0 km/h (1 Bft)
17.05.2010 17:00 15.1 C 61 % 1022.3 hPa 0.0 l/m 1.5 km/h (1 Bft) S 0.00 h 184 W/m 7.7 C 15.1 C 4.2 km/h (1 Bft)
17.05.2010 18:00 14.4 C 65 % 1022.4 hPa 0.0 l/m 1.1 km/h (1 Bft) W-SW 0.00 h 92 W/m 7.9 C 14.4 C 3.4 km/h (1 Bft)
17.05.2010 19:00 13.9 C 68 % 1022.5 hPa 0.0 l/m 1.2 km/h (1 Bft) S-SW 0.00 h 52 W/m 8.0 C 13.9 C 3.1 km/h (1 Bft)
17.05.2010 20:00 13.3 C 67 % 1022.8 hPa 0.0 l/m 4.5 km/h (1 Bft) W-NW 0.00 h 11 W/m 7.2 C 13.3 C 7.6 km/h (2 Bft)
17.05.2010 21:00 12.9 C 67 % 1023.4 hPa 0.0 l/m 2.5 km/h (1 Bft) W-NW 0.00 h 0 W/m 6.9 C 12.9 C 4.5 km/h (1 Bft)
17.05.2010 22:00 12.1 C 73 % 1023.8 hPa 0.0 l/m 1.0 km/h (0 Bft) SO 0.00 h 0 W/m 7.3 C 12.1 C 2.6 km/h (1 Bft)
17.05.2010 23:00 12.1 C 72 % 1024.0 hPa 0.0 l/m 1.5 km/h (1 Bft) N-NW 0.00 h 0 W/m 7.2 C 12.1 C 3.8 km/h (1 Bft)
18.05.2010 00:00 11.8 C 74 % 1024.1 hPa 0.0 l/m 3.1 km/h (1 Bft) W 0.00 h 0 W/m 7.4 C 11.8 C 6.2 km/h (2 Bft)
18.05.2010 01:00 11.4 C 78 % 1024.4 hPa 0.0 l/m 2.5 km/h (1 Bft) W-NW 0.00 h 0 W/m 7.7 C 11.4 C 4.6 km/h (1 Bft)
18.05.2010 02:00 10.3 C 86 % 1024.7 hPa 0.0 l/m 1.3 km/h (1 Bft) W-NW 0.00 h 0 W/m 8.1 C 10.3 C 2.9 km/h (1 Bft)
18.05.2010 03:00 10.1 C 87 % 1024.9 hPa 0.0 l/m 0.9 km/h (0 Bft) W 0.00 h 0 W/m 8.1 C 10.1 C 2.4 km/h (1 Bft)
18.05.2010 04:00 9.7 C 88 % 1024.9 hPa 0.0 l/m 0.9 km/h (0 Bft) S 0.00 h 0 W/m 7.7 C 9.7 C 1.8 km/h (1 Bft)
18.05.2010 05:00 8.4 C 92 % 1025.3 hPa 0.0 l/m 1.0 km/h (0 Bft) O 0.00 h 6 W/m 7.1 C 8.4 C 2.0 km/h (1 Bft)
18.05.2010 06:00 7.6 C 94 % 1025.8 hPa 0.0 l/m 0.3 km/h (0 Bft) O 0.00 h 33 W/m 6.6 C 7.6 C 0.5 km/h (0 Bft)
18.05.2010 07:00 8.6 C 93 % 1025.9 hPa 0.0 l/m 0.5 km/h (0 Bft) O 0.72 h 147 W/m 7.5 C 8.6 C 1.9 km/h (1 Bft)
18.05.2010 08:00 10.4 C 85 % 1026.0 hPa 0.0 l/m 2.4 km/h (1 Bft) N 1.00 h 313 W/m 7.9 C 10.4 C 4.5 km/h (1 Bft)
18.05.2010 09:00 12.3 C 72 % 1026.1 hPa 0.0 l/m 2.1 km/h (1 Bft) N-NW 1.00 h 497 W/m 7.3 C 12.3 C 4.5 km/h (1 Bft)
18.05.2010 10:00 13.6 C 61 % 1025.8 hPa 0.0 l/m 3.9 km/h (1 Bft) N-NW 0.67 h 514 W/m 6.3 C 13.6 C 6.9 km/h (2 Bft)
18.05.2010 11:00 14.2 C 58 % 1025.4 hPa 0.0 l/m 3.2 km/h (1 Bft) NW 0.47 h 532 W/m 6.0 C 14.2 C 5.8 km/h (2 Bft)
18.05.2010 12:00 15.0 C 51 % 1025.2 hPa 0.0 l/m 5.3 km/h (1 Bft) W-NW 0.53 h 620 W/m 4.9 C 15.0 C 8.4 km/h (2 Bft)
18.05.2010 13:00 15.1 C 48 % 1024.7 hPa 0.0 l/m 4.5 km/h (1 Bft) W 0.28 h 468 W/m 4.2 C 15.1 C 7.9 km/h (2 Bft)
18.05.2010 14:00 17.0 C 38 % 1024.5 hPa 0.0 l/m 8.8 km/h (2 Bft) N-NW 0.75 h 758 W/m 2.6 C 17.0 C 13.9 km/h (3 Bft)
18.05.2010 15:00 16.2 C 40 % 1024.2 hPa 0.0 l/m 6.5 km/h (2 Bft) N-NW 0.18 h 370 W/m 2.5 C 16.2 C 10.8 km/h (2 Bft)
18.05.2010 16:00 15.9 C 40 % 1024.2 hPa 0.0 l/m 6.9 km/h (2 Bft) W-NW 0.32 h 328 W/m 2.3 C 15.9 C 11.1 km/h (2 Bft)
18.05.2010 17:00 17.1 C 40 % 1023.8 hPa 0.0 l/m 3.5 km/h (1 Bft) N-NO 0.67 h 449 W/m 3.5 C 17.1 C 6.7 km/h (2 Bft)
18.05.2010 18:00 15.7 C 41 % 1023.8 hPa 0.0 l/m 5.4 km/h (1 Bft) N 0.35 h 211 W/m 2.6 C 15.7 C 9.3 km/h (2 Bft)
18.05.2010 19:00 14.8 C 45 % 1023.8 hPa 0.0 l/m 5.0 km/h (1 Bft) N 0.52 h 128 W/m 2.9 C 14.8 C 9.6 km/h (2 Bft)
18.05.2010 20:00 13.3 C 49 % 1024.0 hPa 0.0 l/m 5.2 km/h (1 Bft) N 0.00 h 26 W/m 2.8 C 13.3 C 10.0 km/h (2 Bft)
18.05.2010 21:00 11.6 C 61 % 1024.6 hPa 0.0 l/m 2.7 km/h (1 Bft) O-SO 0.00 h 0 W/m 4.4 C 11.6 C 5.7 km/h (1 Bft)
18.05.2010 22:00 10.9 C 65 % 1025.3 hPa 0.0 l/m 1.5 km/h (1 Bft) O-SO 0.00 h 0 W/m 4.6 C 10.9 C 3.5 km/h (1 Bft)
18.05.2010 23:00 10.4 C 68 % 1025.2 hPa 0.0 l/m 0.6 km/h (0 Bft) O-NO 0.00 h 0 W/m 4.7 C 10.4 C 2.2 km/h (1 Bft)
19.05.2010 00:00 9.0 C 75 % 1024.8 hPa 0.0 l/m 0.7 km/h (0 Bft) SO 0.00 h 0 W/m 4.8 C 9.0 C 1.4 km/h (1 Bft)
19.05.2010 01:00 7.6 C 82 % 1024.8 hPa 0.0 l/m 1.0 km/h (0 Bft) SO 0.00 h 0 W/m 4.6 C 7.5 C 2.0 km/h (1 Bft)
19.05.2010 02:00 7.5 C 85 % 1024.3 hPa 0.0 l/m 0.3 km/h (0 Bft) SO 0.00 h 0 W/m 5.1 C 7.5 C 0.8 km/h (0 Bft)
19.05.2010 03:00 7.3 C 88 % 1024.5 hPa 0.0 l/m 0.0 km/h (0 Bft) N 0.00 h 0 W/m 5.5 C 7.3 C 0.0 km/h (0 Bft)
19.05.2010 04:00 7.1 C 90 % 1024.5 hPa 0.2 l/m 1.1 km/h (0 Bft) O-SO 0.00 h 0 W/m 5.6 C 7.1 C 2.1 km/h (1 Bft)
19.05.2010 05:00 6.0 C 94 % 1024.4 hPa 0.0 l/m 0.5 km/h (0 Bft) S-SO 0.00 h 6 W/m 5.1 C 6.0 C 1.0 km/h (0 Bft)
19.05.2010 06:00 6.0 C 93 % 1024.9 hPa 0.0 l/m 1.4 km/h (1 Bft) SO 0.00 h 18 W/m 5.0 C 6.0 C 3.4 km/h (1 Bft)
19.05.2010 07:00 6.7 C 92 % 1025.0 hPa 0.4 l/m 2.3 km/h (1 Bft) SO 0.00 h 92 W/m 5.5 C 6.4 C 4.0 km/h (1 Bft)
19.05.2010 08:00 8.2 C 89 % 1025.1 hPa 0.0 l/m 1.2 km/h (1 Bft) N-NW 0.92 h 280 W/m 6.5 C 8.2 C 2.7 km/h (1 Bft)
19.05.2010 09:00 9.8 C 83 % 1025.1 hPa 0.0 l/m 0.8 km/h (0 Bft) W-NW 0.98 h 465 W/m 7.1 C 9.8 C 2.3 km/h (1 Bft)
19.05.2010 10:00 10.8 C 77 % 1025.0 hPa 0.0 l/m 1.0 km/h (0 Bft) S-SO 0.18 h 243 W/m 7.0 C 10.8 C 3.1 km/h (1 Bft)
19.05.2010 11:00 12.1 C 71 % 1025.1 hPa 0.0 l/m 2.9 km/h (1 Bft) SO 0.45 h 514 W/m 7.0 C 12.1 C 6.1 km/h (2 Bft)
19.05.2010 12:00 12.2 C 64 % 1025.1 hPa 0.0 l/m 3.4 km/h (1 Bft) O-SO 0.28 h 316 W/m 5.5 C 12.2 C 5.9 km/h (2 Bft)
19.05.2010 13:00 13.1 C 61 % 1025.1 hPa 0.0 l/m 1.7 km/h (1 Bft) W-NW 0.48 h 501 W/m 5.6 C 13.1 C 4.3 km/h (1 Bft)
19.05.2010 14:00 14.3 C 52 % 1024.8 hPa 0.0 l/m 2.9 km/h (1 Bft) W-SW 0.30 h 434 W/m 4.6 C 14.3 C 5.4 km/h (1 Bft)
19.05.2010 15:00 14.3 C 57 % 1024.7 hPa 0.0 l/m 2.8 km/h (1 Bft) W 0.17 h 359 W/m 5.9 C 14.3 C 5.8 km/h (2 Bft)
19.05.2010 16:00 14.2 C 57 % 1024.6 hPa 0.0 l/m 2.3 km/h (1 Bft) S-SO 0.00 h 255 W/m 5.7 C 14.2 C 5.2 km/h (1 Bft)
19.05.2010 17:00 13.4 C 57 % 1024.8 hPa 0.0 l/m 2.3 km/h (1 Bft) S-SO 0.00 h 113 W/m 4.9 C 13.4 C 5.4 km/h (1 Bft)
19.05.2010 18:00 13.4 C 59 % 1024.8 hPa 0.0 l/m 1.1 km/h (1 Bft) S-SO 0.00 h 87 W/m 5.5 C 13.4 C 3.1 km/h (1 Bft)
19.05.2010 19:00 12.9 C 62 % 1025.1 hPa 0.0 l/m 1.3 km/h (1 Bft) O-SO 0.00 h 26 W/m 5.9 C 12.9 C 3.0 km/h (1 Bft)
19.05.2010 20:00 10.7 C 72 % 1026.3 hPa 0.2 l/m 7.5 km/h (2 Bft) N 0.00 h 10 W/m 5.8 C 10.7 C 13.6 km/h (3 Bft)
19.05.2010 21:00 9.1 C 84 % 1027.2 hPa 0.6 l/m 1.3 km/h (1 Bft) O-SO 0.00 h 0 W/m 6.5 C 9.1 C 2.8 km/h (1 Bft)
19.05.2010 22:00 8.5 C 89 % 1027.7 hPa 0.4 l/m 0.8 km/h (0 Bft) O-SO 0.00 h 0 W/m 6.8 C 8.5 C 2.1 km/h (1 Bft)
19.05.2010 23:00 8.4 C 93 % 1027.8 hPa 0.0 l/m 0.1 km/h (0 Bft) O-SO 0.00 h 0 W/m 7.4 C 8.4 C 0.7 km/h (0 Bft)
20.05.2010 00:00 8.4 C 93 % 1027.7 hPa 0.0 l/m 0.0 km/h (0 Bft) O-SO 0.00 h 0 W/m 7.4 C 8.4 C 0.3 km/h (0 Bft)
20.05.2010 01:00 8.5 C 94 % 1027.5 hPa 0.0 l/m 0.0 km/h (0 Bft) N 0.00 h 0 W/m 7.5 C 8.5 C 0.0 km/h (0 Bft)
20.05.2010 02:00 8.4 C 94 % 1027.2 hPa 0.0 l/m 0.7 km/h (0 Bft) S-SO 0.00 h 0 W/m 7.5 C 8.4 C 2.1 km/h (1 Bft)
20.05.2010 03:00 8.4 C 93 % 1027.0 hPa 0.0 l/m 0.7 km/h (0 Bft) S-SO 0.00 h 0 W/m 7.3 C 8.4 C 2.3 km/h (1 Bft)
20.05.2010 04:00 8.3 C 93 % 1026.9 hPa 0.0 l/m 0.9 km/h (0 Bft) S-SO 0.00 h 0 W/m 7.3 C 8.3 C 2.3 km/h (1 Bft)
20.05.2010 05:00 8.3 C 94 % 1026.7 hPa 0.0 l/m 0.7 km/h (0 Bft) S-SO 0.00 h 0 W/m 7.4 C 8.3 C 1.9 km/h (1 Bft)
20.05.2010 06:00 8.4 C 93 % 1026.8 hPa 0.0 l/m 1.2 km/h (1 Bft) S-SO 0.00 h 8 W/m 7.4 C 8.4 C 2.9 km/h (1 Bft)
20.05.2010 07:00 8.7 C 93 % 1027.2 hPa 0.0 l/m 1.1 km/h (1 Bft) S-SO 0.00 h 27 W/m 7.6 C 8.7 C 3.3 km/h (1 Bft)
20.05.2010 08:00 9.2 C 91 % 1027.6 hPa 0.0 l/m 0.9 km/h (0 Bft) S-SO 0.00 h 70 W/m 7.9 C 9.2 C 2.6 km/h (1 Bft)
20.05.2010 09:00 9.7 C 92 % 1027.9 hPa 0.2 l/m 1.1 km/h (0 Bft) W 0.00 h 117 W/m 8.5 C 9.7 C 2.9 km/h (1 Bft)
20.05.2010 10:00 10.0 C 92 % 1028.0 hPa 0.0 l/m 1.5 km/h (1 Bft) W-SW 0.00 h 103 W/m 8.7 C 10.0 C 3.3 km/h (1 Bft)
20.05.2010 11:00 10.9 C 88 % 1027.8 hPa 0.0 l/m 1.3 km/h (1 Bft) W 0.00 h 206 W/m 9.0 C 10.9 C 2.6 km/h (1 Bft)
20.05.2010 12:00 12.4 C 83 % 1027.6 hPa 0.0 l/m 2.5 km/h (1 Bft) W 0.07 h 304 W/m 9.6 C 12.4 C 4.6 km/h (1 Bft)
20.05.2010 13:00 12.6 C 80 % 1027.3 hPa 0.0 l/m 3.5 km/h (1 Bft) W-NW 0.00 h 277 W/m 9.2 C 12.6 C 5.6 km/h (1 Bft)
20.05.2010 14:00 12.6 C 80 % 1027.2 hPa 0.0 l/m 4.1 km/h (1 Bft) W-NW 0.00 h 202 W/m 9.3 C 12.6 C 7.1 km/h (2 Bft)
20.05.2010 15:00 12.6 C 80 % 1027.2 hPa 0.0 l/m 5.0 km/h (1 Bft) W 0.00 h 199 W/m 9.2 C 12.6 C 8.0 km/h (2 Bft)
20.05.2010 16:00 12.5 C 80 % 1027.2 hPa 0.0 l/m 5.4 km/h (1 Bft) W 0.00 h 164 W/m 9.1 C 12.5 C 8.4 km/h (2 Bft)
20.05.2010 17:00 12.3 C 81 % 1027.4 hPa 0.0 l/m 4.3 km/h (1 Bft) W 0.00 h 116 W/m 9.1 C 12.3 C 7.2 km/h (2 Bft)
20.05.2010 18:00 12.0 C 82 % 1027.4 hPa 0.0 l/m 2.5 km/h (1 Bft) W 0.00 h 63 W/m 9.1 C 12.0 C 5.2 km/h (1 Bft)
20.05.2010 19:00 11.6 C 85 % 1027.4 hPa 0.0 l/m 1.0 km/h (0 Bft) W 0.00 h 27 W/m 9.1 C 11.6 C 2.8 km/h (1 Bft)
20.05.2010 20:00 11.3 C 86 % 1027.7 hPa 0.0 l/m 0.4 km/h (0 Bft) W 0.00 h 7 W/m 9.2 C 11.3 C 1.6 km/h (1 Bft)
20.05.2010 21:00 10.9 C 89 % 1027.8 hPa 0.0 l/m 1.0 km/h (0 Bft) W 0.00 h 0 W/m 9.2 C 10.9 C 2.7 km/h (1 Bft)
20.05.2010 22:00 10.6 C 90 % 1028.2 hPa 0.0 l/m 0.4 km/h (0 Bft) NW 0.00 h 0 W/m 9.0 C 10.6 C 1.3 km/h (1 Bft)
20.05.2010 23:00 10.5 C 91 % 1028.1 hPa 0.0 l/m 3.2 km/h (1 Bft) N-NW 0.00 h 0 W/m 9.0 C 10.5 C 5.3 km/h (1 Bft)
21.05.2010 00:00 10.4 C 91 % 1028.1 hPa 0.0 l/m 1.7 km/h (1 Bft) N-NW 0.00 h 0 W/m 9.0 C 10.4 C 3.4 km/h (1 Bft)
21.05.2010 01:00 10.3 C 91 % 1027.9 hPa 0.0 l/m 0.2 km/h (0 Bft) N-NW 0.00 h 0 W/m 9.0 C 10.3 C 0.7 km/h (0 Bft)
21.05.2010 02:00 10.0 C 93 % 1027.6 hPa 0.0 l/m 0.5 km/h (0 Bft) N-NW 0.00 h 0 W/m 8.8 C 10.0 C 1.6 km/h (1 Bft)
21.05.2010 03:00 9.7 C 94 % 1027.3 hPa 0.0 l/m 0.0 km/h (0 Bft) N 0.00 h 0 W/m 8.8 C 9.7 C 0.0 km/h (0 Bft)
21.05.2010 04:00 9.7 C 95 % 1027.2 hPa 0.0 l/m 0.3 km/h (0 Bft) N-NW 0.00 h 0 W/m 8.9 C 9.7 C 1.0 km/h (0 Bft)
21.05.2010 05:00 9.9 C 94 % 1026.9 hPa 0.0 l/m 0.5 km/h (0 Bft) N-NW 0.00 h 5 W/m 9.0 C 9.9 C 1.4 km/h (1 Bft)
21.05.2010 06:00 10.1 C 93 % 1026.9 hPa 0.0 l/m 0.7 km/h (0 Bft) N-NW 0.00 h 18 W/m 9.1 C 10.1 C 1.9 km/h (1 Bft)
21.05.2010 07:00 10.7 C 92 % 1027.0 hPa 0.0 l/m 0.3 km/h (0 Bft) N-NW 0.03 h 77 W/m 9.5 C 10.7 C 1.1 km/h (0 Bft)
21.05.2010 08:00 12.1 C 88 % 1027.0 hPa 0.0 l/m 0.4 km/h (0 Bft) NW 0.30 h 196 W/m 10.1 C 12.1 C 1.6 km/h (1 Bft)
21.05.2010 09:00 12.6 C 83 % 1027.1 hPa 0.0 l/m 1.3 km/h (1 Bft) O-SO 0.00 h 202 W/m 9.8 C 12.6 C 3.1 km/h (1 Bft)
21.05.2010 10:00 13.1 C 80 % 1027.0 hPa 0.0 l/m 2.2 km/h (1 Bft) SO 0.00 h 239 W/m 9.8 C 13.1 C 4.3 km/h (1 Bft)
21.05.2010 11:00 14.2 C 77 % 1026.8 hPa 0.0 l/m 1.9 km/h (1 Bft) O 0.18 h 357 W/m 10.2 C 14.2 C 4.0 km/h (1 Bft)
21.05.2010 12:00 14.5 C 74 % 1026.8 hPa 0.0 l/m 2.7 km/h (1 Bft) O-SO 0.00 h 234 W/m 10.0 C 14.5 C 4.9 km/h (1 Bft)
21.05.2010 13:00 15.2 C 72 % 1026.6 hPa 0.0 l/m 2.7 km/h (1 Bft) N-NO 0.25 h 392 W/m 10.1 C 15.2 C 5.4 km/h (1 Bft)
21.05.2010 14:00 16.8 C 66 % 1026.0 hPa 0.0 l/m 4.0 km/h (1 Bft) O-SO 0.97 h 750 W/m 10.4 C 16.8 C 7.3 km/h (2 Bft)
21.05.2010 15:00 17.4 C 62 % 1025.7 hPa 0.0 l/m 4.2 km/h (1 Bft) O-SO 0.37 h 484 W/m 10.1 C 17.4 C 7.7 km/h (2 Bft)
21.05.2010 16:00 16.9 C 65 % 1025.6 hPa 0.0 l/m 3.3 km/h (1 Bft) N 0.00 h 247 W/m 10.2 C 16.9 C 6.3 km/h (2 Bft)
21.05.2010 17:00 17.6 C 64 % 1025.2 hPa 0.0 l/m 5.9 km/h (2 Bft) N-NW 0.42 h 347 W/m 10.6 C 17.6 C 9.7 km/h (2 Bft)
21.05.2010 18:00 18.7 C 60 % 1024.8 hPa 0.0 l/m 4.7 km/h (1 Bft) N 1.00 h 349 W/m 10.7 C 18.7 C 9.2 km/h (2 Bft)
21.05.2010 19:00 17.2 C 63 % 1024.7 hPa 0.0 l/m 2.5 km/h (1 Bft) N-NO 0.73 h 147 W/m 10.0 C 17.2 C 5.3 km/h (1 Bft)
21.05.2010 20:00 16.1 C 68 % 1024.6 hPa 0.0 l/m 1.3 km/h (1 Bft) N-NO 0.07 h 31 W/m 10.2 C 16.1 C 3.6 km/h (1 Bft)
21.05.2010 21:00 14.4 C 76 % 1025.1 hPa 0.0 l/m 0.8 km/h (0 Bft) NO 0.00 h 5 W/m 10.2 C 14.4 C 2.5 km/h (1 Bft)
21.05.2010 22:00 13.9 C 78 % 1025.5 hPa 0.0 l/m 3.4 km/h (1 Bft) N-NO 0.00 h 0 W/m 10.1 C 13.9 C 7.3 km/h (2 Bft)
21.05.2010 23:00 13.3 C 80 % 1025.3 hPa 0.0 l/m 3.2 km/h (1 Bft) N-NO 0.00 h 0 W/m 9.9 C 13.3 C 7.0 km/h (2 Bft)
22.05.2010 00:00 12.6 C 82 % 1025.4 hPa 0.0 l/m 3.1 km/h (1 Bft) N-NO 0.00 h 0 W/m 9.6 C 12.6 C 7.3 km/h (2 Bft)
22.05.2010 01:00 12.0 C 83 % 1024.9 hPa 0.0 l/m 2.6 km/h (1 Bft) NO 0.00 h 0 W/m 9.2 C 12.0 C 6.1 km/h (2 Bft)
22.05.2010 02:00 11.1 C 85 % 1024.4 hPa 0.0 l/m 0.7 km/h (0 Bft) N-NW 0.00 h 0 W/m 8.7 C 11.1 C 2.3 km/h (1 Bft)
22.05.2010 03:00 9.6 C 91 % 1024.2 hPa 0.0 l/m 0.9 km/h (0 Bft) O-SO 0.00 h 0 W/m 8.2 C 9.6 C 2.0 km/h (1 Bft)
22.05.2010 04:00 9.2 C 91 % 1023.9 hPa 0.0 l/m 0.4 km/h (0 Bft) O-SO 0.00 h 0 W/m 7.8 C 9.2 C 1.2 km/h (1 Bft)
22.05.2010 05:00 8.8 C 93 % 1023.7 hPa 0.0 l/m 0.3 km/h (0 Bft) NO 0.02 h 8 W/m 7.7 C 8.8 C 0.9 km/h (0 Bft)
22.05.2010 06:00 8.4 C 93 % 1023.9 hPa 0.0 l/m 0.6 km/h (0 Bft) SO 0.00 h 31 W/m 7.3 C 8.4 C 1.3 km/h (1 Bft)
22.05.2010 07:00 10.0 C 91 % 1024.0 hPa 0.0 l/m 0.1 km/h (0 Bft) O-SO 0.83 h 165 W/m 8.6 C 10.0 C 0.7 km/h (0 Bft)
22.05.2010 08:00 12.7 C 84 % 1023.9 hPa 0.0 l/m 0.4 km/h (0 Bft) O 1.00 h 347 W/m 10.0 C 12.7 C 1.6 km/h (1 Bft)
22.05.2010 09:00 15.5 C 75 % 1023.7 hPa 0.0 l/m 1.8 km/h (1 Bft) O-SO 0.65 h 419 W/m 11.1 C 15.5 C 4.0 km/h (1 Bft)
22.05.2010 10:00 17.2 C 67 % 1023.2 hPa 0.0 l/m 3.9 km/h (1 Bft) O-SO 0.60 h 539 W/m 11.0 C 17.2 C 8.2 km/h (2 Bft)
22.05.2010 11:00 18.6 C 62 % 1022.6 hPa 0.0 l/m 7.3 km/h (2 Bft) O-SO 0.88 h 771 W/m 11.2 C 18.6 C 13.2 km/h (3 Bft)
22.05.2010 12:00 20.2 C 57 % 1022.2 hPa 0.0 l/m 5.5 km/h (1 Bft) O-SO 1.00 h 868 W/m 11.3 C 20.2 C 10.4 km/h (2 Bft)
22.05.2010 13:00 21.3 C 52 % 1021.7 hPa 0.0 l/m 5.7 km/h (1 Bft) O-SO 1.00 h 913 W/m 11.0 C 21.3 C 11.0 km/h (2 Bft)
22.05.2010 14:00 21.9 C 46 % 1021.3 hPa 0.0 l/m 6.3 km/h (2 Bft) O-SO 0.97 h 862 W/m 9.9 C 21.9 C 11.4 km/h (2 Bft)
22.05.2010 15:00 22.6 C 45 % 1020.9 hPa 0.0 l/m 6.0 km/h (2 Bft) O-SO 0.95 h 782 W/m 10.0 C 22.6 C 10.7 km/h (2 Bft)
22.05.2010 16:00 22.5 C 43 % 1020.5 hPa 0.0 l/m 8.2 km/h (2 Bft) O-SO 0.90 h 621 W/m 9.2 C 22.5 C 13.8 km/h (3 Bft)
22.05.2010 17:00 22.0 C 41 % 1020.2 hPa 0.0 l/m 7.5 km/h (2 Bft) O-SO 0.37 h 265 W/m 8.1 C 22.0 C 12.0 km/h (2 Bft)
22.05.2010 18:00 22.2 C 42 % 1019.9 hPa 0.0 l/m 6.7 km/h (2 Bft) O-SO 0.63 h 292 W/m 8.6 C 22.2 C 11.4 km/h (2 Bft)
22.05.2010 19:00 20.0 C 54 % 1019.9 hPa 0.0 l/m 2.3 km/h (1 Bft) NW 0.32 h 109 W/m 10.5 C 20.0 C 4.8 km/h (1 Bft)
22.05.2010 20:00 19.9 C 53 % 1019.6 hPa 0.0 l/m 1.0 km/h (0 Bft) NO 0.38 h 44 W/m 10.0 C 19.9 C 3.2 km/h (1 Bft)
22.05.2010 21:00 17.7 C 62 % 1019.9 hPa 0.0 l/m 1.6 km/h (1 Bft) N-NO 0.00 h 5 W/m 10.3 C 17.7 C 4.1 km/h (1 Bft)
22.05.2010 22:00 15.1 C 76 % 1020.3 hPa 0.0 l/m 0.0 km/h (0 Bft) N 0.00 h 0 W/m 10.8 C 15.1 C 0.2 km/h (0 Bft)
22.05.2010 23:00 14.0 C 78 % 1020.4 hPa 0.0 l/m 0.4 km/h (0 Bft) O-NO 0.00 h 0 W/m 10.1 C 14.0 C 0.9 km/h (0 Bft)
23.05.2010 00:00 12.4 C 82 % 1020.5 hPa 0.0 l/m 0.9 km/h (0 Bft) O-SO 0.00 h 0 W/m 9.5 C 12.4 C 2.1 km/h (1 Bft)
23.05.2010 01:00 11.7 C 86 % 1020.4 hPa 0.0 l/m 0.2 km/h (0 Bft) O-SO 0.00 h 0 W/m 9.4 C 11.7 C 0.7 km/h (0 Bft)
23.05.2010 02:00 11.2 C 89 % 1020.2 hPa 0.0 l/m 1.0 km/h (0 Bft) O 0.00 h 0 W/m 9.4 C 11.2 C 1.8 km/h (1 Bft)
23.05.2010 03:00 11.0 C 88 % 1020.0 hPa 0.0 l/m 1.4 km/h (1 Bft) O 0.00 h 0 W/m 9.0 C 11.0 C 2.8 km/h (1 Bft)
23.05.2010 04:00 10.0 C 91 % 1019.9 hPa 0.0 l/m 0.3 km/h (0 Bft) O 0.00 h 0 W/m 8.5 C 10.0 C 1.0 km/h (0 Bft)
23.05.2010 05:00 9.3 C 92 % 1019.9 hPa 0.0 l/m 0.7 km/h (0 Bft) O 0.02 h 8 W/m 8.0 C 9.3 C 2.0 km/h (1 Bft)
23.05.2010 06:00 9.2 C 92 % 1020.0 hPa 0.0 l/m 0.2 km/h (0 Bft) O 0.00 h 27 W/m 8.0 C 9.2 C 0.9 km/h (0 Bft)
23.05.2010 07:00 10.9 C 89 % 1020.0 hPa 0.0 l/m 0.1 km/h (0 Bft) O 0.85 h 174 W/m 9.1 C 10.9 C 0.3 km/h (0 Bft)
23.05.2010 08:00 13.3 C 83 % 1020.1 hPa 0.0 l/m 1.9 km/h (1 Bft) N 1.00 h 348 W/m 10.5 C 13.3 C 3.5 km/h (1 Bft)
23.05.2010 09:00 16.5 C 74 % 1019.9 hPa 0.0 l/m 1.7 km/h (1 Bft) N-NW 1.00 h 516 W/m 11.9 C 16.5 C 3.6 km/h (1 Bft)
23.05.2010 10:00 19.3 C 63 % 1019.5 hPa 0.0 l/m 3.3 km/h (1 Bft) O-SO 1.00 h 666 W/m 12.2 C 19.3 C 6.2 km/h (2 Bft)
23.05.2010 11:00 21.3 C 56 % 1019.1 hPa 0.0 l/m 4.9 km/h (1 Bft) O-SO 1.00 h 786 W/m 12.2 C 21.3 C 8.6 km/h (2 Bft)
23.05.2010 12:00 22.3 C 52 % 1019.1 hPa 0.0 l/m 5.5 km/h (1 Bft) SO 1.00 h 859 W/m 12.1 C 22.3 C 9.9 km/h (2 Bft)
23.05.2010 13:00 23.1 C 45 % 1018.7 hPa 0.0 l/m 5.0 km/h (1 Bft) O-SO 0.80 h 801 W/m 10.6 C 23.1 C 9.2 km/h (2 Bft)
23.05.2010 14:00 23.8 C 43 % 1018.4 hPa 0.0 l/m 5.0 km/h (1 Bft) O-SO 0.90 h 836 W/m 10.3 C 23.8 C 10.1 km/h (2 Bft)
23.05.2010 15:00 24.2 C 43 % 1018.0 hPa 0.0 l/m 4.2 km/h (1 Bft) O-NO 1.00 h 770 W/m 10.7 C 24.2 C 7.9 km/h (2 Bft)
23.05.2010 16:00 24.2 C 43 % 1017.6 hPa 0.0 l/m 3.7 km/h (1 Bft) O-SO 0.85 h 588 W/m 10.8 C 24.2 C 7.2 km/h (2 Bft)
23.05.2010 17:00 24.2 C 44 % 1017.6 hPa 0.0 l/m 5.0 km/h (1 Bft) O-SO 0.90 h 483 W/m 11.0 C 24.2 C 8.7 km/h (2 Bft)
23.05.2010 18:00 24.2 C 44 % 1017.3 hPa 0.0 l/m 2.6 km/h (1 Bft) NO 0.98 h 341 W/m 11.1 C 24.2 C 6.3 km/h (2 Bft)
23.05.2010 19:00 22.9 C 46 % 1016.9 hPa 0.0 l/m 3.5 km/h (1 Bft) O-SO 0.90 h 160 W/m 10.6 C 22.9 C 6.5 km/h (2 Bft)
23.05.2010 20:00 21.4 C 50 % 1017.0 hPa 0.0 l/m 1.9 km/h (1 Bft) O-NO 0.35 h 40 W/m 10.5 C 21.4 C 4.3 km/h (1 Bft)
23.05.2010 21:00 18.5 C 63 % 1017.2 hPa 0.0 l/m 1.8 km/h (1 Bft) O 0.00 h 5 W/m 11.2 C 18.5 C 2.5 km/h (1 Bft)
23.05.2010 22:00 16.4 C 71 % 1017.6 hPa 0.0 l/m 0.5 km/h (0 Bft) O 0.00 h 0 W/m 11.1 C 16.4 C 1.3 km/h (1 Bft)
23.05.2010 23:00 14.9 C 77 % 1017.8 hPa 0.0 l/m 2.4 km/h (1 Bft) O 0.00 h 0 W/m 10.8 C 14.9 C 3.7 km/h (1 Bft)
Min-Datum _ 23.05.10 18.05.10 23.05.10 - 17.05.10 - - - 18.05.10 19.05.10 17.05.10
_ Min-Zeit 23:36 18:22 20:01 - 02:07 - - - 18:22 06:17 00:02
Minimum _ -0.1 C 33 % 1016.8 hPa - 0.0 km/h (0 Bft) - - - -0.1 C 4.9 C 0.0 km/h (0 Bft)
Max-Datum _ 23.05.10 17.05.10 20.05.10 19.05.10 17.05.10 - 21.05.10 17.05.10 23.05.10 23.05.10 17.05.10
_ Max-Zeit 16:39 06:50 22:46 21:25 14:50 - 17:51 13:35 11:25 16:38 14:52
Maximum _ 25.2 C 99 % 1028.3 hPa 0.6 l/m 20.9 km/h
W-NW (4 Bft)
- 0.03 h 1287 W/m 14.7 C 25.2 C 34.8 km/h
W (5 Bft)
Durchschnitt _ 13.0 C 74 % 1023.9 hPa #2.0 l/m 2.4 km/h (1 Bft) O-SO #43:07 h 200 W/m 8.0 C 13.0 C 4.7 km/h (1 Bft)
© Kaiko 2010